sensor_id;sensor_type;location;lat;lon;timestamp;temperature;humidity
49052;DHT22;34866;48.670;18.260;2023-01-29T00:01:45;12.90;6451.20
49052;DHT22;34866;48.670;18.260;2023-01-29T00:04:10;12.90;6451.20
49052;DHT22;34866;48.670;18.260;2023-01-29T00:06:39;12.90;6451.20
49052;DHT22;34866;48.670;18.260;2023-01-29T00:09:05;12.90;6451.20
49052;DHT22;34866;48.670;18.260;2023-01-29T00:11:30;12.90;6451.20
49052;DHT22;34866;48.670;18.260;2023-01-29T00:13:56;12.90;6451.20
49052;DHT22;34866;48.670;18.260;2023-01-29T00:16:22;12.90;6451.20
49052;DHT22;34866;48.670;18.260;2023-01-29T00:18:54;12.90;6451.20
49052;DHT22;34866;48.670;18.260;2023-01-29T00:21:21;12.90;6451.20
49052;DHT22;34866;48.670;18.260;2023-01-29T00:23:47;12.90;6451.20
49052;DHT22;34866;48.670;18.260;2023-01-29T00:26:14;12.90;6451.20
49052;DHT22;34866;48.670;18.260;2023-01-29T00:28:40;12.90;6451.20
49052;DHT22;34866;48.670;18.260;2023-01-29T00:31:31;12.90;6451.20
49052;DHT22;34866;48.670;18.260;2023-01-29T00:33:57;12.90;6451.20
49052;DHT22;34866;48.670;18.260;2023-01-29T00:36:24;12.90;6451.20
49052;DHT22;34866;48.670;18.260;2023-01-29T00:38:54;12.90;6451.20
49052;DHT22;34866;48.670;18.260;2023-01-29T00:41:25;12.90;6451.20
49052;DHT22;34866;48.670;18.260;2023-01-29T00:44:10;12.90;6451.20
49052;DHT22;34866;48.670;18.260;2023-01-29T00:46:54;12.90;6451.20
49052;DHT22;34866;48.670;18.260;2023-01-29T00:49:20;12.90;6451.20
49052;DHT22;34866;48.670;18.260;2023-01-29T00:51:49;12.90;6451.20
49052;DHT22;34866;48.670;18.260;2023-01-29T00:54:33;12.90;6451.20
49052;DHT22;34866;48.670;18.260;2023-01-29T00:57:00;12.90;6451.20
49052;DHT22;34866;48.670;18.260;2023-01-29T00:59:31;12.90;6451.20
49052;DHT22;34866;48.670;18.260;2023-01-29T01:01:57;13.00;6451.20
49052;DHT22;34866;48.670;18.260;2023-01-29T01:04:41;12.90;6451.20
49052;DHT22;34866;48.670;18.260;2023-01-29T01:07:07;12.90;6451.20
49052;DHT22;34866;48.670;18.260;2023-01-29T01:09:36;0.00;6451.20
49052;DHT22;34866;48.670;18.260;2023-01-29T01:12:23;0.00;6451.20
49052;DHT22;34866;48.670;18.260;2023-01-29T01:14:49;0.00;6451.20
49052;DHT22;34866;48.670;18.260;2023-01-29T01:17:15;0.00;6451.20
49052;DHT22;34866;48.670;18.260;2023-01-29T01:19:41;0.10;6451.20
49052;DHT22;34866;48.670;18.260;2023-01-29T01:22:10;0.00;6451.20
49052;DHT22;34866;48.670;18.260;2023-01-29T01:24:39;0.00;6451.20
49052;DHT22;34866;48.670;18.260;2023-01-29T01:27:07;0.00;6451.20
49052;DHT22;34866;48.670;18.260;2023-01-29T01:29:39;0.00;6451.20
49052;DHT22;34866;48.670;18.260;2023-01-29T01:32:05;0.00;6451.20
49052;DHT22;34866;48.670;18.260;2023-01-29T01:34:37;12.90;6451.20
49052;DHT22;34866;48.670;18.260;2023-01-29T01:37:03;0.00;6451.20
49052;DHT22;34866;48.670;18.260;2023-01-29T01:39:29;12.90;6451.20
49052;DHT22;34866;48.670;18.260;2023-01-29T01:41:54;0.00;6451.20
49052;DHT22;34866;48.670;18.260;2023-01-29T01:47:39;0.00;6451.20
49052;DHT22;34866;48.670;18.260;2023-01-29T01:50:40;0.00;6451.20
49052;DHT22;34866;48.670;18.260;2023-01-29T01:53:17;12.90;6451.20
49052;DHT22;34866;48.670;18.260;2023-01-29T01:55:47;0.00;6451.20
49052;DHT22;34866;48.670;18.260;2023-01-29T01:58:27;13.00;6451.20
49052;DHT22;34866;48.670;18.260;2023-01-29T02:00:55;13.30;486.40
49052;DHT22;34866;48.670;18.260;2023-01-29T02:03:22;13.30;1152.00
49052;DHT22;34866;48.670;18.260;2023-01-29T02:06:10;13.30;1100.80
49052;DHT22;34866;48.670;18.260;2023-01-29T02:09:10;13.30;1536.00
49052;DHT22;34866;48.670;18.260;2023-01-29T02:11:56;13.30;1356.80
49052;DHT22;34866;48.670;18.260;2023-01-29T02:14:21;13.40;1305.60
49052;DHT22;34866;48.670;18.260;2023-01-29T02:16:47;13.30;1484.80
49052;DHT22;34866;48.670;18.260;2023-01-29T02:19:53;13.40;1433.60
49052;DHT22;34866;48.670;18.260;2023-01-29T02:28:05;13.40;1152.00
49052;DHT22;34866;48.670;18.260;2023-01-29T02:33:47;13.60;1024.00
49052;DHT22;34866;48.670;18.260;2023-01-29T02:42:50;13.50;793.60
49052;DHT22;34866;48.670;18.260;2023-01-29T02:50:20;13.60;819.20
49052;DHT22;34866;48.670;18.260;2023-01-29T02:56:08;13.70;691.20
49052;DHT22;34866;48.670;18.260;2023-01-29T02:58:36;13.70;588.80
49052;DHT22;34866;48.670;18.260;2023-01-29T03:01:10;13.60;793.60
49052;DHT22;34866;48.670;18.260;2023-01-29T03:03:39;13.70;537.60
49052;DHT22;34866;48.670;18.260;2023-01-29T03:06:32;13.60;896.00
49052;DHT22;34866;48.670;18.260;2023-01-29T03:09:17;13.70;537.60
49052;DHT22;34866;48.670;18.260;2023-01-29T03:11:54;38.40;512.00
49052;DHT22;34866;48.670;18.260;2023-01-29T03:14:33;13.70;870.40
49052;DHT22;34866;48.670;18.260;2023-01-29T03:17:45;13.70;870.40
49052;DHT22;34866;48.670;18.260;2023-01-29T03:20:16;13.70;921.60
49052;DHT22;34866;48.670;18.260;2023-01-29T03:22:48;13.70;870.40
49052;DHT22;34866;48.670;18.260;2023-01-29T03:25:17;13.70;614.40
49052;DHT22;34866;48.670;18.260;2023-01-29T03:28:06;38.40;896.00
49052;DHT22;34866;48.670;18.260;2023-01-29T03:31:01;38.40;716.80
49052;DHT22;34866;48.670;18.260;2023-01-29T03:33:53;38.40;563.20
49052;DHT22;34866;48.670;18.260;2023-01-29T03:36:36;38.40;716.80
49052;DHT22;34866;48.670;18.260;2023-01-29T03:39:07;38.40;563.20
49052;DHT22;34866;48.670;18.260;2023-01-29T03:41:46;38.40;691.20
49052;DHT22;34866;48.670;18.260;2023-01-29T03:44:29;38.50;512.00
49052;DHT22;34866;48.670;18.260;2023-01-29T03:47:11;38.60;256.00
49052;DHT22;34866;48.670;18.260;2023-01-29T03:53:07;38.70;256.00
49052;DHT22;34866;48.670;18.260;2023-01-29T03:55:50;38.70;6528.00
49052;DHT22;34866;48.670;18.260;2023-01-29T03:58:28;38.60;256.00
49052;DHT22;34866;48.670;18.260;2023-01-29T04:01:11;38.70;230.40
49052;DHT22;34866;48.670;18.260;2023-01-29T04:11:19;38.80;128.00
49052;DHT22;34866;48.670;18.260;2023-01-29T04:13:46;38.70;512.00
49052;DHT22;34866;48.670;18.260;2023-01-29T04:16:35;38.70;384.00
49052;DHT22;34866;48.670;18.260;2023-01-29T04:19:04;38.70;153.60
49052;DHT22;34866;48.670;18.260;2023-01-29T04:21:30;38.70;204.80
49052;DHT22;34866;48.670;18.260;2023-01-29T04:24:00;38.70;128.00
49052;DHT22;34866;48.670;18.260;2023-01-29T04:35:14;38.70;6451.20
49052;DHT22;34866;48.670;18.260;2023-01-29T04:38:14;38.70;128.00
49052;DHT22;34866;48.670;18.260;2023-01-29T04:40:51;38.70;6451.20
49052;DHT22;34866;48.670;18.260;2023-01-29T04:43:44;38.70;6451.20
49052;DHT22;34866;48.670;18.260;2023-01-29T04:49:07;38.70;6451.20
49052;DHT22;34866;48.670;18.260;2023-01-29T05:00:42;38.70;6451.20
49052;DHT22;34866;48.670;18.260;2023-01-29T05:03:11;38.70;6451.20
49052;DHT22;34866;48.670;18.260;2023-01-29T05:05:41;38.70;6451.20
49052;DHT22;34866;48.670;18.260;2023-01-29T05:08:10;38.70;6451.20
49052;DHT22;34866;48.670;18.260;2023-01-29T05:10:41;38.70;6451.20
49052;DHT22;34866;48.670;18.260;2023-01-29T05:13:10;38.70;6451.20
49052;DHT22;34866;48.670;18.260;2023-01-29T05:15:49;38.70;6451.20
49052;DHT22;34866;48.670;18.260;2023-01-29T05:18:18;38.80;6451.20
49052;DHT22;34866;48.670;18.260;2023-01-29T05:20:50;38.70;6451.20
49052;DHT22;34866;48.670;18.260;2023-01-29T05:23:21;38.70;6451.20
49052;DHT22;34866;48.670;18.260;2023-01-29T05:25:49;38.80;6451.20
49052;DHT22;34866;48.670;18.260;2023-01-29T05:28:15;38.80;6451.20
49052;DHT22;34866;48.670;18.260;2023-01-29T05:30:44;38.80;6451.20
49052;DHT22;34866;48.670;18.260;2023-01-29T05:33:13;38.80;6451.20
49052;DHT22;34866;48.670;18.260;2023-01-29T05:35:39;38.90;6451.20
49052;DHT22;34866;48.670;18.260;2023-01-29T05:38:05;38.90;6451.20
49052;DHT22;34866;48.670;18.260;2023-01-29T05:40:31;38.90;6451.20
49052;DHT22;34866;48.670;18.260;2023-01-29T05:42:58;38.90;6451.20
49052;DHT22;34866;48.670;18.260;2023-01-29T05:45:23;38.90;6451.20
49052;DHT22;34866;48.670;18.260;2023-01-29T05:47:49;38.90;6451.20
49052;DHT22;34866;48.670;18.260;2023-01-29T05:50:15;38.90;6451.20
49052;DHT22;34866;48.670;18.260;2023-01-29T05:52:41;38.90;6451.20
49052;DHT22;34866;48.670;18.260;2023-01-29T05:55:08;39.00;6451.20
49052;DHT22;34866;48.670;18.260;2023-01-29T05:57:34;39.00;6451.20
49052;DHT22;34866;48.670;18.260;2023-01-29T06:00:00;39.00;6451.20
49052;DHT22;34866;48.670;18.260;2023-01-29T06:02:29;39.00;6451.20
49052;DHT22;34866;48.670;18.260;2023-01-29T06:04:55;39.00;6451.20
49052;DHT22;34866;48.670;18.260;2023-01-29T06:07:21;39.00;6451.20
49052;DHT22;34866;48.670;18.260;2023-01-29T06:09:47;39.00;6451.20
49052;DHT22;34866;48.670;18.260;2023-01-29T06:12:12;39.00;6451.20
49052;DHT22;34866;48.670;18.260;2023-01-29T06:14:38;39.00;6451.20
49052;DHT22;34866;48.670;18.260;2023-01-29T06:17:04;39.00;6451.20
49052;DHT22;34866;48.670;18.260;2023-01-29T06:19:29;39.10;6451.20
49052;DHT22;34866;48.670;18.260;2023-01-29T06:21:56;39.10;6451.20
49052;DHT22;34866;48.670;18.260;2023-01-29T06:24:21;39.00;6451.20
49052;DHT22;34866;48.670;18.260;2023-01-29T06:26:47;39.00;6451.20
49052;DHT22;34866;48.670;18.260;2023-01-29T06:29:12;39.00;6451.20
49052;DHT22;34866;48.670;18.260;2023-01-29T06:31:38;39.00;6451.20
49052;DHT22;34866;48.670;18.260;2023-01-29T06:34:05;39.00;6451.20
49052;DHT22;34866;48.670;18.260;2023-01-29T06:36:31;39.00;6451.20
49052;DHT22;34866;48.670;18.260;2023-01-29T06:38:56;39.00;6451.20
49052;DHT22;34866;48.670;18.260;2023-01-29T06:41:28;39.00;6451.20
49052;DHT22;34866;48.670;18.260;2023-01-29T06:43:54;39.00;6451.20
49052;DHT22;34866;48.670;18.260;2023-01-29T06:46:20;39.00;6451.20
49052;DHT22;34866;48.670;18.260;2023-01-29T06:48:45;39.00;6451.20
49052;DHT22;34866;48.670;18.260;2023-01-29T06:51:11;39.00;6451.20
49052;DHT22;34866;48.670;18.260;2023-01-29T06:53:38;39.00;6451.20
49052;DHT22;34866;48.670;18.260;2023-01-29T06:56:05;39.00;6451.20
49052;DHT22;34866;48.670;18.260;2023-01-29T06:58:30;39.00;6451.20
49052;DHT22;34866;48.670;18.260;2023-01-29T07:01:07;39.00;6451.20
49052;DHT22;34866;48.670;18.260;2023-01-29T07:03:38;39.00;6451.20
49052;DHT22;34866;48.670;18.260;2023-01-29T07:06:06;39.00;6451.20
49052;DHT22;34866;48.670;18.260;2023-01-29T07:08:37;38.90;6451.20
49052;DHT22;34866;48.670;18.260;2023-01-29T07:11:03;39.00;6451.20
49052;DHT22;34866;48.670;18.260;2023-01-29T07:13:29;38.90;6451.20
49052;DHT22;34866;48.670;18.260;2023-01-29T07:15:59;38.90;6451.20
49052;DHT22;34866;48.670;18.260;2023-01-29T07:18:27;38.90;6451.20
49052;DHT22;34866;48.670;18.260;2023-01-29T07:20:54;38.90;6451.20
49052;DHT22;34866;48.670;18.260;2023-01-29T07:23:21;38.90;6451.20
49052;DHT22;34866;48.670;18.260;2023-01-29T07:25:47;38.90;6451.20
49052;DHT22;34866;48.670;18.260;2023-01-29T07:28:17;38.90;6451.20
49052;DHT22;34866;48.670;18.260;2023-01-29T07:30:43;38.90;6451.20
49052;DHT22;34866;48.670;18.260;2023-01-29T07:33:09;38.90;6451.20
49052;DHT22;34866;48.670;18.260;2023-01-29T07:35:39;38.90;6451.20
49052;DHT22;34866;48.670;18.260;2023-01-29T07:38:07;39.00;6451.20
49052;DHT22;34866;48.670;18.260;2023-01-29T07:40:33;38.90;6451.20
49052;DHT22;34866;48.670;18.260;2023-01-29T07:42:59;38.80;6451.20
49052;DHT22;34866;48.670;18.260;2023-01-29T07:45:26;38.80;6451.20
49052;DHT22;34866;48.670;18.260;2023-01-29T07:47:52;38.80;6451.20
49052;DHT22;34866;48.670;18.260;2023-01-29T07:50:20;38.80;6451.20
49052;DHT22;34866;48.670;18.260;2023-01-29T07:52:45;38.70;6451.20
49052;DHT22;34866;48.670;18.260;2023-01-29T07:55:11;38.80;6451.20
49052;DHT22;34866;48.670;18.260;2023-01-29T07:57:37;38.70;6451.20
49052;DHT22;34866;48.670;18.260;2023-01-29T08:00:09;38.70;6451.20
49052;DHT22;34866;48.670;18.260;2023-01-29T08:02:40;38.80;6451.20
49052;DHT22;34866;48.670;18.260;2023-01-29T08:05:07;38.80;6451.20
49052;DHT22;34866;48.670;18.260;2023-01-29T08:07:34;38.70;6451.20
49052;DHT22;34866;48.670;18.260;2023-01-29T08:10:03;38.70;6451.20
49052;DHT22;34866;48.670;18.260;2023-01-29T08:12:32;38.60;6451.20
49052;DHT22;34866;48.670;18.260;2023-01-29T08:14:58;38.50;6451.20
49052;DHT22;34866;48.670;18.260;2023-01-29T08:17:24;38.50;6451.20
49052;DHT22;34866;48.670;18.260;2023-01-29T08:19:49;13.70;6451.20
49052;DHT22;34866;48.670;18.260;2023-01-29T08:22:15;13.10;6451.20
49052;DHT22;34866;48.670;18.260;2023-01-29T08:24:41;13.20;6451.20
49052;DHT22;34866;48.670;18.260;2023-01-29T08:27:07;13.20;6451.20
49052;DHT22;34866;48.670;18.260;2023-01-29T08:29:34;13.70;6451.20
49052;DHT22;34866;48.670;18.260;2023-01-29T08:32:00;13.70;6451.20
49052;DHT22;34866;48.670;18.260;2023-01-29T08:34:29;38.60;6451.20
49052;DHT22;34866;48.670;18.260;2023-01-29T08:36:54;38.50;6451.20
49052;DHT22;34866;48.670;18.260;2023-01-29T08:39:23;38.50;6451.20
49052;DHT22;34866;48.670;18.260;2023-01-29T08:41:49;38.40;6451.20
49052;DHT22;34866;48.670;18.260;2023-01-29T08:44:14;38.40;6451.20
49052;DHT22;34866;48.670;18.260;2023-01-29T08:46:40;38.40;6451.20
49052;DHT22;34866;48.670;18.260;2023-01-29T08:49:06;38.40;6451.20
49052;DHT22;34866;48.670;18.260;2023-01-29T08:51:32;38.40;6451.20
49052;DHT22;34866;48.670;18.260;2023-01-29T08:53:58;38.50;6451.20
49052;DHT22;34866;48.670;18.260;2023-01-29T08:56:24;38.50;6451.20
49052;DHT22;34866;48.670;18.260;2023-01-29T08:58:49;38.40;6451.20
49052;DHT22;34866;48.670;18.260;2023-01-29T09:01:18;38.40;6451.20
49052;DHT22;34866;48.670;18.260;2023-01-29T09:03:47;38.40;6451.20
49052;DHT22;34866;48.670;18.260;2023-01-29T09:06:17;38.50;6451.20
49052;DHT22;34866;48.670;18.260;2023-01-29T09:08:43;38.50;6451.20
49052;DHT22;34866;48.670;18.260;2023-01-29T09:11:09;38.50;6451.20
49052;DHT22;34866;48.670;18.260;2023-01-29T09:13:35;38.40;6451.20
49052;DHT22;34866;48.670;18.260;2023-01-29T09:16:04;13.70;6451.20
49052;DHT22;34866;48.670;18.260;2023-01-29T09:18:36;13.70;6451.20
49052;DHT22;34866;48.670;18.260;2023-01-29T09:21:02;38.40;6451.20
49052;DHT22;34866;48.670;18.260;2023-01-29T09:23:30;13.60;6451.20
49052;DHT22;34866;48.670;18.260;2023-01-29T09:25:56;13.60;6451.20
49052;DHT22;34866;48.670;18.260;2023-01-29T09:28:25;13.60;6451.20
49052;DHT22;34866;48.670;18.260;2023-01-29T09:30:51;13.50;6451.20
49052;DHT22;34866;48.670;18.260;2023-01-29T09:33:20;13.60;6451.20
49052;DHT22;34866;48.670;18.260;2023-01-29T09:35:48;13.40;6451.20
49052;DHT22;34866;48.670;18.260;2023-01-29T09:38:23;13.40;6451.20
49052;DHT22;34866;48.670;18.260;2023-01-29T09:41:17;13.40;6451.20
49052;DHT22;34866;48.670;18.260;2023-01-29T09:43:54;13.40;6451.20
49052;DHT22;34866;48.670;18.260;2023-01-29T09:46:49;13.20;6451.20
49052;DHT22;34866;48.670;18.260;2023-01-29T09:49:31;13.20;6451.20
49052;DHT22;34866;48.670;18.260;2023-01-29T09:52:29;13.40;6451.20
49052;DHT22;34866;48.670;18.260;2023-01-29T09:57:51;13.10;6451.20
49052;DHT22;34866;48.670;18.260;2023-01-29T10:14:43;13.00;6451.20
49052;DHT22;34866;48.670;18.260;2023-01-29T10:20:37;77.60;6476.80
49052;DHT22;34866;48.670;18.260;2023-01-29T10:23:21;77.50;6476.80
49052;DHT22;34866;48.670;18.260;2023-01-29T10:25:59;51.30;6476.80
49052;DHT22;34866;48.670;18.260;2023-01-29T10:28:41;179.70;6502.40
49052;DHT22;34866;48.670;18.260;2023-01-29T10:31:37;179.80;6502.40
49052;DHT22;34866;48.670;18.260;2023-01-29T10:36:46;281.60;6528.00
49052;DHT22;34866;48.670;18.260;2023-01-29T10:39:24;205.50;6502.40
49052;DHT22;34866;48.670;18.260;2023-01-29T10:45:14;77.50;6476.80
49052;DHT22;34866;48.670;18.260;2023-01-29T10:50:57;205.20;6502.40
49052;DHT22;34866;48.670;18.260;2023-01-29T10:53:47;230.70;6502.40
49052;DHT22;34866;48.670;18.260;2023-01-29T11:02:21;179.70;6502.40
49052;DHT22;34866;48.670;18.260;2023-01-29T11:04:47;205.50;6502.40
49052;DHT22;34866;48.670;18.260;2023-01-29T11:07:15;154.30;6502.40
49052;DHT22;34866;48.670;18.260;2023-01-29T11:10:06;179.70;6502.40
49052;DHT22;34866;48.670;18.260;2023-01-29T11:12:32;231.10;6502.40
49052;DHT22;34866;48.670;18.260;2023-01-29T11:15:33;205.00;6502.40
49052;DHT22;34866;48.670;18.260;2023-01-29T11:18:10;231.00;6502.40
49052;DHT22;34866;48.670;18.260;2023-01-29T11:20:41;205.40;6502.40
49052;DHT22;34866;48.670;18.260;2023-01-29T11:23:30;205.50;6502.40
49052;DHT22;34866;48.670;18.260;2023-01-29T11:25:57;179.20;6502.40
49052;DHT22;34866;48.670;18.260;2023-01-29T11:28:39;230.50;6502.40
49052;DHT22;34866;48.670;18.260;2023-01-29T11:31:22;128.10;6502.40
49052;DHT22;34866;48.670;18.260;2023-01-29T11:33:53;128.00;6502.40
49052;DHT22;34866;48.670;18.260;2023-01-29T11:36:36;154.30;6502.40
49052;DHT22;34866;48.670;18.260;2023-01-29T11:39:20;230.70;6502.40
49052;DHT22;34866;48.670;18.260;2023-01-29T11:49:45;205.50;6502.40
49052;DHT22;34866;48.670;18.260;2023-01-29T11:52:14;256.40;6502.40
49052;DHT22;34866;48.670;18.260;2023-01-29T11:54:57;256.30;6502.40
49052;DHT22;34866;48.670;18.260;2023-01-29T11:57:33;231.20;153.60
49052;DHT22;34866;48.670;18.260;2023-01-29T12:00:05;180.10;6502.40
49052;DHT22;34866;48.670;18.260;2023-01-29T12:02:40;180.00;6502.40
49052;DHT22;34866;48.670;18.260;2023-01-29T12:05:17;179.30;6502.40
49052;DHT22;34866;48.670;18.260;2023-01-29T12:07:46;180.00;6502.40
49052;DHT22;34866;48.670;18.260;2023-01-29T12:10:41;128.70;6502.40
49052;DHT22;34866;48.670;18.260;2023-01-29T12:15:45;103.30;6476.80
49052;DHT22;34866;48.670;18.260;2023-01-29T12:18:12;179.50;6502.40
49052;DHT22;34866;48.670;18.260;2023-01-29T12:27:14;205.40;332.80
49052;DHT22;34866;48.670;18.260;2023-01-29T12:29:54;205.30;6502.40
49052;DHT22;34866;48.670;18.260;2023-01-29T12:32:34;205.00;460.80
49052;DHT22;34866;48.670;18.260;2023-01-29T12:35:20;102.70;6476.80
49052;DHT22;34866;48.670;18.260;2023-01-29T12:37:57;102.80;6476.80
49052;DHT22;34866;48.670;18.260;2023-01-29T12:40:32;179.20;6502.40
49052;DHT22;34866;48.670;18.260;2023-01-29T12:43:15;154.30;6502.40
49052;DHT22;34866;48.670;18.260;2023-01-29T12:45:43;128.20;6502.40
49052;DHT22;34866;48.670;18.260;2023-01-29T12:48:14;128.10;6502.40
49052;DHT22;34866;48.670;18.260;2023-01-29T12:50:42;128.70;6502.40
49052;DHT22;34866;48.670;18.260;2023-01-29T12:53:34;154.00;6502.40
49052;DHT22;34866;48.670;18.260;2023-01-29T12:56:06;154.40;6502.40
49052;DHT22;34866;48.670;18.260;2023-01-29T12:58:37;153.80;6502.40
49052;DHT22;34866;48.670;18.260;2023-01-29T13:01:31;179.70;6502.40
49052;DHT22;34866;48.670;18.260;2023-01-29T13:04:02;154.40;6502.40
49052;DHT22;34866;48.670;18.260;2023-01-29T13:06:35;128.50;6502.40
49052;DHT22;34866;48.670;18.260;2023-01-29T13:09:08;128.80;6502.40
49052;DHT22;34866;48.670;18.260;2023-01-29T13:11:44;205.00;6502.40
49052;DHT22;34866;48.670;18.260;2023-01-29T13:14:17;230.40;6502.40
49052;DHT22;34866;48.670;18.260;2023-01-29T13:16:46;128.40;6502.40
49052;DHT22;34866;48.670;18.260;2023-01-29T13:19:27;26.50;6451.20
49052;DHT22;34866;48.670;18.260;2023-01-29T13:21:58;77.00;6476.80
49052;DHT22;34866;48.670;18.260;2023-01-29T13:24:30;154.50;6502.40
49052;DHT22;34866;48.670;18.260;2023-01-29T13:26:58;205.40;6502.40
49052;DHT22;34866;48.670;18.260;2023-01-29T13:29:29;180.00;6502.40
49052;DHT22;34866;48.670;18.260;2023-01-29T13:31:56;77.70;6476.80
49052;DHT22;34866;48.670;18.260;2023-01-29T13:34:31;128.60;6502.40
49052;DHT22;34866;48.670;18.260;2023-01-29T13:37:27;179.30;6502.40
49052;DHT22;34866;48.670;18.260;2023-01-29T13:39:55;128.20;6502.40
49052;DHT22;34866;48.670;18.260;2023-01-29T13:45:06;77.60;6476.80
49052;DHT22;34866;48.670;18.260;2023-01-29T13:47:37;76.90;6476.80
49052;DHT22;34866;48.670;18.260;2023-01-29T13:50:09;76.90;6476.80
49052;DHT22;34866;48.670;18.260;2023-01-29T13:52:53;77.30;6476.80
49052;DHT22;34866;48.670;18.260;2023-01-29T13:55:27;51.80;6476.80
49052;DHT22;34866;48.670;18.260;2023-01-29T13:58:00;25.90;6451.20
49052;DHT22;34866;48.670;18.260;2023-01-29T14:00:46;0.60;6451.20
49052;DHT22;34866;48.670;18.260;2023-01-29T14:08:43;0.20;6451.20
49052;DHT22;34866;48.670;18.260;2023-01-29T14:13:38;0.40;6451.20
49052;DHT22;34866;48.670;18.260;2023-01-29T14:18:34;0.70;6451.20
49052;DHT22;34866;48.670;18.260;2023-01-29T14:21:21;0.30;6451.20
49052;DHT22;34866;48.670;18.260;2023-01-29T14:23:57;0.20;6451.20
49052;DHT22;34866;48.670;18.260;2023-01-29T14:26:30;13.00;6451.20
49052;DHT22;34866;48.670;18.260;2023-01-29T14:31:42;12.90;6451.20
49052;DHT22;34866;48.670;18.260;2023-01-29T14:34:33;13.00;6451.20
49052;DHT22;34866;48.670;18.260;2023-01-29T14:37:26;13.20;128.00
49052;DHT22;34866;48.670;18.260;2023-01-29T14:43:05;13.30;486.40
49052;DHT22;34866;48.670;18.260;2023-01-29T14:45:33;13.20;307.20
49052;DHT22;34866;48.670;18.260;2023-01-29T14:53:09;13.50;6451.20
49052;DHT22;34866;48.670;18.260;2023-01-29T14:55:36;13.60;6451.20
49052;DHT22;34866;48.670;18.260;2023-01-29T14:58:03;13.50;6451.20
49052;DHT22;34866;48.670;18.260;2023-01-29T15:00:36;13.60;6451.20
49052;DHT22;34866;48.670;18.260;2023-01-29T15:05:56;13.60;6451.20
49052;DHT22;34866;48.670;18.260;2023-01-29T15:08:35;13.50;6451.20
49052;DHT22;34866;48.670;18.260;2023-01-29T15:11:06;13.70;6451.20
49052;DHT22;34866;48.670;18.260;2023-01-29T15:14:21;13.70;6451.20
49052;DHT22;34866;48.670;18.260;2023-01-29T15:22:07;38.60;6451.20
49052;DHT22;34866;48.670;18.260;2023-01-29T15:24:35;38.60;6451.20
49052;DHT22;34866;48.670;18.260;2023-01-29T15:27:01;38.70;6451.20
49052;DHT22;34866;48.670;18.260;2023-01-29T15:29:28;38.80;6451.20
49052;DHT22;34866;48.670;18.260;2023-01-29T15:31:55;38.90;6451.20
49052;DHT22;34866;48.670;18.260;2023-01-29T15:34:21;38.90;6451.20
49052;DHT22;34866;48.670;18.260;2023-01-29T15:36:48;39.10;6451.20
49052;DHT22;34866;48.670;18.260;2023-01-29T15:41:46;39.10;6451.20
49052;DHT22;34866;48.670;18.260;2023-01-29T15:44:17;39.20;6451.20
49052;DHT22;34866;48.670;18.260;2023-01-29T15:46:53;39.20;6451.20
49052;DHT22;34866;48.670;18.260;2023-01-29T15:51:54;39.30;6451.20
49052;DHT22;34866;48.670;18.260;2023-01-29T15:54:21;39.10;6451.20
49052;DHT22;34866;48.670;18.260;2023-01-29T15:56:50;39.30;6451.20
49052;DHT22;34866;48.670;18.260;2023-01-29T15:59:19;39.30;6451.20
49052;DHT22;34866;48.670;18.260;2023-01-29T16:01:46;64.00;6451.20
49052;DHT22;34866;48.670;18.260;2023-01-29T16:04:23;64.00;6451.20
49052;DHT22;34866;48.670;18.260;2023-01-29T16:06:52;64.00;6451.20
49052;DHT22;34866;48.670;18.260;2023-01-29T16:09:21;64.00;6451.20
49052;DHT22;34866;48.670;18.260;2023-01-29T16:11:52;64.00;6451.20
49052;DHT22;34866;48.670;18.260;2023-01-29T16:14:21;64.10;6451.20
49052;DHT22;34866;48.670;18.260;2023-01-29T16:16:48;64.10;6451.20
49052;DHT22;34866;48.670;18.260;2023-01-29T16:19:29;64.10;6451.20
49052;DHT22;34866;48.670;18.260;2023-01-29T16:22:05;64.00;6451.20
49052;DHT22;34866;48.670;18.260;2023-01-29T16:24:34;64.00;6451.20
49052;DHT22;34866;48.670;18.260;2023-01-29T16:27:21;64.10;6451.20
49052;DHT22;34866;48.670;18.260;2023-01-29T16:29:50;64.10;6451.20
49052;DHT22;34866;48.670;18.260;2023-01-29T16:32:16;64.10;6451.20
49052;DHT22;34866;48.670;18.260;2023-01-29T16:34:44;64.10;6451.20
49052;DHT22;34866;48.670;18.260;2023-01-29T16:37:27;64.10;6451.20
49052;DHT22;34866;48.670;18.260;2023-01-29T16:39:53;64.30;6451.20
49052;DHT22;34866;48.670;18.260;2023-01-29T16:42:24;64.20;6451.20
49052;DHT22;34866;48.670;18.260;2023-01-29T16:49:58;64.30;6451.20
49052;DHT22;34866;48.670;18.260;2023-01-29T16:52:33;64.30;6451.20
49052;DHT22;34866;48.670;18.260;2023-01-29T16:57:37;64.30;6451.20
49052;DHT22;34866;48.670;18.260;2023-01-29T17:00:06;64.40;6451.20
49052;DHT22;34866;48.670;18.260;2023-01-29T17:02:40;64.30;6451.20
49052;DHT22;34866;48.670;18.260;2023-01-29T17:05:20;64.50;6451.20
49052;DHT22;34866;48.670;18.260;2023-01-29T17:07:46;64.40;6451.20
49052;DHT22;34866;48.670;18.260;2023-01-29T17:10:19;64.40;6451.20
49052;DHT22;34866;48.670;18.260;2023-01-29T17:12:54;64.60;6451.20
49052;DHT22;34866;48.670;18.260;2023-01-29T17:18:23;64.60;6451.20
49052;DHT22;34866;48.670;18.260;2023-01-29T17:20:49;64.50;6451.20
49052;DHT22;34866;48.670;18.260;2023-01-29T17:23:23;64.50;6451.20
49052;DHT22;34866;48.670;18.260;2023-01-29T17:25:49;64.50;6451.20
49052;DHT22;34866;48.670;18.260;2023-01-29T17:28:16;64.50;6451.20
49052;DHT22;34866;48.670;18.260;2023-01-29T17:30:43;64.50;6451.20
49052;DHT22;34866;48.670;18.260;2023-01-29T17:33:18;64.60;6451.20
49052;DHT22;34866;48.670;18.260;2023-01-29T17:35:48;64.60;6451.20
49052;DHT22;34866;48.670;18.260;2023-01-29T17:38:16;64.60;6451.20
49052;DHT22;34866;48.670;18.260;2023-01-29T17:40:55;64.60;6451.20
49052;DHT22;34866;48.670;18.260;2023-01-29T17:43:25;64.70;6451.20
49052;DHT22;34866;48.670;18.260;2023-01-29T17:45:53;64.60;6451.20
49052;DHT22;34866;48.670;18.260;2023-01-29T17:48:23;64.70;6451.20
49052;DHT22;34866;48.670;18.260;2023-01-29T17:50:50;64.70;6451.20
49052;DHT22;34866;48.670;18.260;2023-01-29T17:53:22;64.70;6451.20
49052;DHT22;34866;48.670;18.260;2023-01-29T17:55:48;64.70;6451.20
49052;DHT22;34866;48.670;18.260;2023-01-29T17:58:24;64.70;6451.20